Time;durP1;ratioP1;P1;durP2;ratioP2;P2;SDS_P1;SDS_P2;PMS_P1;PMS_P2;Temp;Humidity;BMP_temperature;BMP_pressure;BME280_temperature;BME280_humidity;BME280_pressure;Samples;Min_cycle;Max_cycle;Signal;HPM_P1;HPM_P2
2022/11/04 00:08:25;;;;;;;7.55;5.30;;;;;;;21.35;59.33;100125.78;20991366;28;20083;-74
2022/11/04 00:18:25;;;;;;;7.35;5.45;;;;;;;21.33;59.34;100125.06;20983620;28;20037;-74
2022/11/04 00:28:44;;;;;;;8.55;5.68;;;;;;;21.34;59.26;100099.56;20984258;28;20054;-74
2022/11/04 00:38:45;;;;;;;7.35;5.10;;;;;;;21.32;59.58;100075.97;20976245;28;20072;-74
2022/11/04 00:48:45;;;;;;;6.65;4.82;;;;;;;21.31;59.32;100071.66;20978602;28;20040;-74
2022/11/04 00:58:45;;;;;;;7.47;4.90;;;;;;;21.30;58.96;100046.31;20979836;28;20052;-73
2022/11/04 01:08:47;;;;;;;7.57;5.18;;;;;;;21.30;59.17;100035.78;20979582;28;20406;-73
2022/11/04 01:18:47;;;;;;;7.57;5.00;;;;;;;21.30;59.40;100048.09;20983193;28;20173;-73
2022/11/04 01:28:48;;;;;;;7.78;4.80;;;;;;;21.30;59.31;100034.94;20970868;28;20387;-73
2022/11/04 01:38:48;;;;;;;7.60;5.15;;;;;;;21.27;59.40;100026.31;20980646;28;20411;-73
2022/11/04 01:48:50;;;;;;;6.82;4.90;;;;;;;21.25;59.32;100004.56;20967237;28;20063;-73
2022/11/04 01:58:54;;;;;;;7.10;4.90;;;;;;;21.27;59.20;99980.72;20968938;28;20060;-73
2022/11/04 02:08:55;;;;;;;6.65;4.93;;;;;;;21.24;59.41;99957.31;20977547;28;20044;-73
2022/11/04 02:19:30;;;;;;;6.47;4.82;;;;;;;21.24;59.23;99955.50;20977330;28;20052;-74
2022/11/04 02:29:49;;;;;;;6.97;4.55;;;;;;;21.22;59.29;99953.97;20975781;28;20082;-74
2022/11/04 02:40:12;;;;;;;5.90;4.47;;;;;;;21.23;59.26;99930.13;20979631;28;20048;-74
2022/11/04 02:50:18;;;;;;;;;;;;;;;21.24;59.12;99918.63;20982208;28;20037;-78
2022/11/04 03:00:21;;;;;;;6.75;4.68;;;;;;;21.21;59.24;99913.59;20967658;28;19927;-75
2022/11/04 03:10:37;;;;;;;6.80;4.88;;;;;;;21.23;59.32;99908.22;20989993;28;20569;-70
2022/11/04 03:20:39;;;;;;;8.10;4.60;;;;;;;21.21;59.32;99910.16;20985097;28;20902;-74
2022/11/04 03:30:45;;;;;;;4.97;4.13;;;;;;;21.20;58.97;99876.88;20985820;28;20036;-75
2022/11/04 03:40:45;;;;;;;6.53;4.70;;;;;;;21.18;59.48;99858.59;20987206;28;20123;-74
2022/11/04 03:50:47;;;;;;;6.95;4.90;;;;;;;21.19;58.96;99855.00;20988147;28;20044;-75
2022/11/04 04:00:54;;;;;;;8.32;4.85;;;;;;;21.17;59.29;99845.56;20981358;28;20055;-75
2022/11/04 04:11:09;;;;;;;6.00;4.63;;;;;;;21.17;59.20;99829.78;20984975;28;20452;-75
2022/11/04 04:21:14;;;;;;;6.07;4.80;;;;;;;21.15;59.49;99806.19;20985657;28;20048;-74
2022/11/04 04:31:48;;;;;;;6.60;4.65;;;;;;;21.15;59.08;99797.47;20983946;28;20499;-75
2022/11/04 04:51:57;;;;;;;7.10;4.55;;;;;;;21.13;58.97;99794.13;20977445;28;20063;-73
2022/11/04 05:01:57;;;;;;;6.65;4.80;;;;;;;21.12;59.14;99777.50;20977970;28;20042;-74
2022/11/04 05:11:58;;;;;;;6.20;4.80;;;;;;;21.17;59.06;99785.00;20989293;28;20036;-73
2022/11/04 05:21:58;;;;;;;8.52;5.30;;;;;;;21.23;59.80;99797.66;20972601;28;20145;-76
2022/11/04 05:31:59;;;;;;;6.45;4.88;;;;;;;21.31;59.81;99810.94;20980403;28;20093;-76
2022/11/04 05:41:59;;;;;;;7.50;5.35;;;;;;;21.38;60.49;99809.44;20976592;28;20056;-78
2022/11/04 05:52:00;;;;;;;6.57;4.75;;;;;;;21.45;60.25;99796.59;20981981;28;20048;-78
2022/11/04 06:02:01;;;;;;;6.88;4.93;;;;;;;21.49;60.08;99791.88;20958668;28;20060;-79
2022/11/04 06:12:01;;;;;;;7.70;4.82;;;;;;;21.55;60.45;99812.41;20948845;28;20048;-77
2022/11/04 06:22:02;;;;;;;14.43;7.80;;;;;;;21.58;59.52;99820.91;20946602;28;20059;-78
2022/11/04 06:32:03;;;;;;;14.30;7.97;;;;;;;21.57;59.37;99805.25;20975985;28;20129;-78
2022/11/04 06:42:05;;;;;;;12.30;8.00;;;;;;;21.59;59.87;99825.22;20964738;28;20059;-79
2022/11/04 06:52:05;;;;;;;13.75;8.40;;;;;;;21.62;59.35;99816.22;20978318;28;20052;-74
2022/11/04 07:02:05;;;;;;;13.55;7.93;;;;;;;21.65;59.38;99809.84;20995670;28;20043;-77
2022/11/04 07:12:06;;;;;;;9.93;6.95;;;;;;;21.66;59.53;99806.25;20995251;28;20032;-75
2022/11/04 07:22:07;;;;;;;11.10;7.13;;;;;;;21.67;59.21;99810.53;20992658;28;20063;-75
2022/11/04 07:32:07;;;;;;;16.73;6.85;;;;;;;21.67;59.00;99821.91;20966980;28;20040;-74
2022/11/04 07:42:08;;;;;;;9.15;6.78;;;;;;;21.68;59.12;99806.91;20989921;28;20044;-75
2022/11/04 07:52:08;;;;;;;13.43;7.70;;;;;;;21.69;59.22;99800.69;20999096;28;20044;-74
2022/11/04 08:02:09;;;;;;;11.68;7.32;;;;;;;21.70;59.10;99778.63;21073232;22;20066;-75
2022/11/04 08:12:10;;;;;;;11.10;7.22;;;;;;;21.69;59.50;99762.00;20975234;28;20047;-73
2022/11/04 08:22:10;;;;;;;12.73;7.35;;;;;;;21.71;59.33;99749.50;20995104;28;20039;-76
2022/11/04 08:32:11;;;;;;;11.20;7.65;;;;;;;21.72;59.41;99769.63;20990143;28;20043;-75
2022/11/04 08:42:12;;;;;;;14.48;8.65;;;;;;;21.76;59.62;99757.00;20993384;27;20036;-76
2022/11/04 08:52:13;;;;;;;14.07;8.95;;;;;;;21.80;59.57;99733.84;21001819;28;20044;-74
2022/11/04 09:02:14;;;;;;;19.88;9.48;;;;;;;21.82;59.74;99740.63;20994977;28;20044;-75
2022/11/04 09:12:15;;;;;;;15.30;9.20;;;;;;;21.84;59.64;99733.44;20989384;28;20055;-73
2022/11/04 09:22:15;;;;;;;20.27;9.82;;;;;;;21.86;60.23;99717.47;20964191;28;20391;-75
2022/11/04 09:32:16;;;;;;;15.50;10.33;;;;;;;21.86;59.96;99701.66;20969300;28;20068;-76
2022/11/04 09:42:32;;;;;;;17.35;11.25;;;;;;;21.87;59.76;99709.44;20993000;28;20356;-77
2022/11/04 09:52:43;;;;;;;13.80;10.02;;;;;;;21.88;59.77;99697.09;20987391;28;20055;-75
2022/11/04 10:03:06;;;;;;;18.10;10.40;;;;;;;21.88;59.97;99686.53;21002033;28;20033;-77
2022/11/04 10:13:32;;;;;;;17.52;10.77;;;;;;;21.87;60.01;99669.06;21019118;28;20059;-78
2022/11/04 10:23:37;;;;;;;14.95;10.68;;;;;;;21.87;59.85;99640.06;21035873;28;20044;-78
2022/11/04 10:33:42;;;;;;;15.10;10.57;;;;;;;21.87;59.82;99642.72;20985618;28;20044;-77
2022/11/04 10:43:42;;;;;;;18.63;10.38;;;;;;;21.83;59.38;99633.44;20981735;28;20047;-74
2022/11/04 10:53:43;;;;;;;15.32;11.15;;;;;;;21.79;59.54;99622.34;20893281;28;20112;-72
2022/11/04 11:03:43;;;;;;;16.25;10.85;;;;;;;21.78;59.29;99606.69;20977332;28;20356;-73
2022/11/04 11:13:45;;;;;;;17.38;11.43;;;;;;;21.80;60.02;99592.38;20998714;28;20478;-77
2022/11/04 11:23:48;;;;;;;105.13;40.77;;;;;;;21.87;60.44;99584.72;20993561;28;20063;-77
2022/11/04 11:33:51;;;;;;;;;;;;;;;21.87;61.03;99590.00;21000036;28;20040;-76
2022/11/04 11:43:55;;;;;;;76.72;33.85;;;;;;;21.90;61.75;99566.00;20990750;28;19995;-76
2022/11/04 11:54:15;;;;;;;59.13;27.88;;;;;;;21.91;60.51;99565.03;20999151;28;20063;-76
2022/11/04 12:04:19;;;;;;;61.00;27.13;;;;;;;21.93;60.75;99538.53;21006283;28;20044;-76
2022/11/04 12:14:39;;;;;;;55.05;25.00;;;;;;;21.94;60.29;99527.00;21004365;28;20040;-79
2022/11/04 12:25:08;;;;;;;41.30;21.75;;;;;;;21.94;60.19;99506.75;21005445;28;20127;-80
2022/11/04 12:35:22;;;;;;;43.55;21.40;;;;;;;21.92;59.31;99490.25;20974381;28;20062;-83
2022/11/04 12:45:28;;;;;;;42.55;20.05;;;;;;;21.92;58.80;99455.97;21010573;28;20032;-85
2022/11/04 12:55:50;;;;;;;38.65;18.85;;;;;;;21.94;59.18;99456.66;20999834;28;20048;-81
2022/11/04 13:06:00;;;;;;;33.93;17.80;;;;;;;21.95;59.00;99453.06;20983538;28;20043;-82
2022/11/04 13:16:06;;;;;;;37.97;17.45;;;;;;;21.94;59.28;99442.66;20995083;28;20075;-82
2022/11/04 13:26:12;;;;;;;31.88;16.55;;;;;;;21.93;59.17;99433.91;20990855;28;20071;-83
2022/11/04 13:36:37;;;;;;;32.42;16.73;;;;;;;21.91;59.23;99426.16;21004321;28;20078;-82
2022/11/04 13:46:37;;;;;;;30.73;16.05;;;;;;;21.92;59.04;99426.97;21010147;27;20125;-81
2022/11/04 13:56:40;;;;;;;28.10;15.35;;;;;;;21.89;58.84;99427.28;20992268;28;20033;-82
2022/11/04 14:07:00;;;;;;;27.00;14.38;;;;;;;21.85;58.87;99423.28;20985362;27;20048;-82
2022/11/04 14:17:05;;;;;;;27.42;15.10;;;;;;;21.86;58.77;99417.03;20994598;28;20048;-82
2022/11/04 14:27:23;;;;;;;26.35;13.73;;;;;;;21.88;58.21;99399.28;20994362;27;20403;-81
2022/11/04 14:37:29;;;;;;;25.05;14.88;;;;;;;21.87;58.33;99381.78;20997121;28;20052;-81
2022/11/04 14:47:31;;;;;;;26.02;12.65;;;;;;;21.83;58.71;99388.34;20986530;28;20039;-81
2022/11/04 14:57:38;;;;;;;32.40;13.20;;;;;;;21.86;58.55;99366.97;20971973;28;20058;-85
2022/11/04 15:07:40;;;;;;;24.88;12.90;;;;;;;21.88;59.46;99349.19;20989680;28;20060;-84
2022/11/04 15:17:40;;;;;;;24.20;13.60;;;;;;;21.91;59.54;99367.38;21000385;28;20048;-86
2022/11/04 15:27:41;;;;;;;24.42;13.30;;;;;;;21.93;59.61;99362.75;21027158;27;20036;-87
2022/11/04 15:37:42;;;;;;;23.25;13.38;;;;;;;21.96;59.51;99353.72;21023265;28;20044;-84
2022/11/04 15:47:43;;;;;;;20.38;13.07;;;;;;;21.89;59.69;99349.03;20981493;28;20721;-79
2022/11/04 15:57:44;;;;;;;21.08;12.80;;;;;;;21.92;59.57;99353.19;20975292;28;20044;-73
2022/11/04 16:07:46;;;;;;;27.20;12.73;;;;;;;21.91;59.51;99372.63;20962355;28;20525;-74
2022/11/04 16:17:47;;;;;;;38.50;19.88;;;;;;;21.77;56.99;99362.59;20971162;28;20045;-75
2022/11/04 16:27:48;;;;;;;30.02;16.30;;;;;;;21.78;57.70;99385.34;20984116;28;20494;-76
2022/11/04 16:37:49;;;;;;;24.40;14.93;;;;;;;21.73;58.37;99369.97;20984684;28;20517;-75
2022/11/04 16:47:51;;;;;;;28.42;14.90;;;;;;;21.73;58.42;99362.06;20984594;28;20040;-76
2022/11/04 16:57:59;;;;;;;23.38;12.73;;;;;;;21.71;58.97;99379.81;20983207;28;20521;-75
2022/11/04 17:07:59;;;;;;;20.77;13.30;;;;;;;21.71;59.03;99353.47;20990029;28;20067;-75
2022/11/04 17:18:00;;;;;;;23.40;13.15;;;;;;;21.68;58.98;99333.50;20969275;28;20048;-75
2022/11/04 17:28:00;;;;;;;21.63;13.40;;;;;;;21.69;59.46;99352.78;20973755;28;20048;-75
2022/11/04 17:38:00;;;;;;;21.33;12.30;;;;;;;21.68;59.17;99357.22;20981801;28;20040;-75
2022/11/04 17:48:02;;;;;;;18.73;12.05;;;;;;;21.68;59.15;99338.78;20984032;28;20036;-75
2022/11/04 17:58:03;;;;;;;18.63;11.70;;;;;;;21.64;59.00;99361.13;20970290;28;20044;-76
2022/11/04 18:08:03;;;;;;;16.75;11.52;;;;;;;21.63;59.01;99362.09;20982163;28;20055;-75
2022/11/04 18:18:04;;;;;;;20.63;12.63;;;;;;;21.63;59.14;99361.25;20980399;28;20067;-74
2022/11/04 18:28:04;;;;;;;17.53;11.50;;;;;;;21.61;59.05;99342.97;20977572;28;20049;-75
2022/11/04 18:38:05;;;;;;;17.27;12.20;;;;;;;21.62;58.92;99341.16;20989181;28;20285;-75
2022/11/04 18:48:05;;;;;;;17.58;11.00;;;;;;;21.60;59.24;99359.75;20995992;28;20066;-75
2022/11/04 18:58:06;;;;;;;15.52;10.73;;;;;;;21.61;58.90;99413.28;20997382;28;20040;-75
2022/11/04 19:08:06;;;;;;;16.08;10.25;;;;;;;21.61;58.89;99423.81;20988474;28;20056;-75
2022/11/04 19:18:07;;;;;;;18.15;10.93;;;;;;;21.59;58.85;99416.88;20993353;27;20052;-75
2022/11/04 19:28:08;;;;;;;16.95;10.40;;;;;;;21.58;59.00;99411.75;20991984;28;20044;-75
2022/11/04 19:38:08;;;;;;;15.25;9.93;;;;;;;21.55;58.64;99412.03;20984459;28;21304;-75
2022/11/04 19:48:09;;;;;;;15.25;10.32;;;;;;;21.54;58.67;99402.44;20996780;28;20043;-75
2022/11/04 19:58:10;;;;;;;16.30;10.48;;;;;;;21.52;59.03;99405.25;20982245;28;20143;-74
2022/11/04 20:08:11;;;;;;;14.02;9.60;;;;;;;21.52;58.96;99413.16;20978631;28;20072;-75
2022/11/04 20:18:11;;;;;;;14.68;9.80;;;;;;;21.51;58.75;99400.94;20983465;28;20046;-75
2022/11/04 20:28:11;;;;;;;13.90;9.82;;;;;;;21.50;58.66;99422.16;20988447;28;20040;-74
2022/11/04 20:38:12;;;;;;;14.15;9.73;;;;;;;21.48;58.80;99409.13;20980295;28;20051;-74
2022/11/04 20:48:13;;;;;;;15.73;10.38;;;;;;;21.47;58.92;99407.47;20976804;28;20032;-74
2022/11/04 20:58:13;;;;;;;14.75;10.07;;;;;;;21.48;59.21;99409.13;20954536;28;20048;-76
2022/11/04 21:08:14;;;;;;;14.47;9.83;;;;;;;21.50;59.44;99411.63;20962821;28;20503;-75
2022/11/04 21:18:14;;;;;;;17.98;9.55;;;;;;;21.52;59.75;99428.09;20967224;28;20304;-72
2022/11/04 21:28:15;;;;;;;30.90;10.13;;;;;;;21.53;59.46;99435.03;20956776;28;20596;-74
2022/11/04 21:38:17;;;;;;;27.13;9.60;;;;;;;21.51;59.21;99452.81;20971473;28;20051;-75
2022/11/04 21:48:17;;;;;;;17.38;9.43;;;;;;;21.51;59.42;99471.25;20976054;28;20112;-76
2022/11/04 21:58:17;;;;;;;21.33;11.85;;;;;;;21.46;58.94;99462.91;20958379;28;20040;-75
2022/11/04 22:08:18;;;;;;;20.45;11.05;;;;;;;21.48;58.56;99468.88;20978757;28;20471;-75
2022/11/04 22:18:19;;;;;;;18.85;10.55;;;;;;;21.48;59.26;99459.16;20941880;28;20048;-75
2022/11/04 22:28:19;;;;;;;20.25;10.02;;;;;;;21.47;59.45;99454.91;20892449;28;20040;-75
2022/11/04 22:38:20;;;;;;;15.20;10.40;;;;;;;21.48;59.58;99459.16;20982623;28;20487;-75
2022/11/04 22:48:21;;;;;;;17.40;10.80;;;;;;;21.50;59.59;99477.47;21004724;28;20262;-74
2022/11/04 22:58:21;;;;;;;18.38;10.98;;;;;;;21.49;59.79;99481.91;20991531;28;20044;-74
2022/11/04 23:08:22;;;;;;;15.40;10.23;;;;;;;21.50;60.28;99467.75;20990122;28;20433;-74
2022/11/04 23:18:42;;;;;;;15.18;10.15;;;;;;;21.51;59.77;99464.16;20991867;28;20055;-76
2022/11/04 23:39:01;;;;;;;15.00;9.30;;;;;;;21.50;59.89;99478.28;20991601;28;20040;-75
